createdAt,value
2022-11-06T00:01:10.170Z,10.20
2022-11-06T00:03:36.843Z,10.97
2022-11-06T00:06:30.811Z,11.30
2022-11-06T00:09:00.170Z,11.30
2022-11-06T00:11:27.058Z,12.23
2022-11-06T00:13:53.998Z,12.40
2022-11-06T00:16:21.123Z,11.40
2022-11-06T00:18:48.417Z,11.77
2022-11-06T00:21:18.703Z,12.43
2022-11-06T00:23:46.274Z,11.33
2022-11-06T00:26:17.944Z,10.87
2022-11-06T00:28:44.910Z,11.20
2022-11-06T00:31:14.495Z,12.27
2022-11-06T00:33:41.303Z,12.27
2022-11-06T00:36:11.494Z,12.20
2022-11-06T00:38:38.054Z,12.53
2022-11-06T00:41:06.817Z,12.17
2022-11-06T00:43:34.299Z,11.60
2022-11-06T00:46:19.768Z,11.97
2022-11-06T00:48:46.491Z,11.43
2022-11-06T00:51:17.059Z,12.50
2022-11-06T00:53:44.787Z,11.13
2022-11-06T00:56:14.167Z,11.57
2022-11-06T00:58:41.990Z,11.40
2022-11-06T01:01:20.697Z,11.23
2022-11-06T01:03:52.594Z,11.47
2022-11-06T01:06:22.726Z,11.10
2022-11-06T01:08:50.121Z,11.37
2022-11-06T01:11:22.567Z,11.37
2022-11-06T01:13:52.937Z,11.27
2022-11-06T01:16:20.558Z,11.63
2022-11-06T01:18:48.055Z,12.77
2022-11-06T01:21:20.412Z,10.90
2022-11-06T01:23:51.871Z,11.53
2022-11-06T01:26:28.988Z,12.40
2022-11-06T01:29:05.068Z,12.20
2022-11-06T01:31:33.010Z,12.67
2022-11-06T01:34:00.921Z,13.13
2022-11-06T01:36:28.779Z,12.10
2022-11-06T01:38:58.044Z,11.83
2022-11-06T01:41:35.377Z,11.00
2022-11-06T01:44:35.899Z,11.37
2022-11-06T01:47:05.062Z,11.20
2022-11-06T01:49:36.849Z,12.33
2022-11-06T01:52:10.132Z,13.57
2022-11-06T01:54:39.993Z,13.17
2022-11-06T01:57:07.446Z,13.43
2022-11-06T01:59:37.835Z,12.83
2022-11-06T02:02:05.026Z,13.87
2022-11-06T02:04:43.082Z,13.17
2022-11-06T02:07:10.761Z,13.13
2022-11-06T02:09:37.435Z,13.60
2022-11-06T02:12:33.207Z,13.93
2022-11-06T02:15:05.740Z,13.37
2022-11-06T02:17:41.557Z,12.43
2022-11-06T02:20:34.089Z,13.40
2022-11-06T02:23:12.743Z,12.87
2022-11-06T02:26:08.311Z,13.73
2022-11-06T02:28:43.878Z,13.97
2022-11-06T02:31:15.801Z,11.63
2022-11-06T02:33:57.535Z,12.50
2022-11-06T02:36:32.757Z,12.83
2022-11-06T02:39:03.531Z,11.77
2022-11-06T02:41:35.746Z,11.77
2022-11-06T02:44:07.932Z,11.20
2022-11-06T02:46:49.454Z,11.27
2022-11-06T02:49:24.796Z,10.10
2022-11-06T02:51:56.867Z,11.03
2022-11-06T02:54:26.603Z,10.57
2022-11-06T02:56:58.055Z,10.17
2022-11-06T03:00:03.537Z,9.47
2022-11-06T03:02:37.813Z,9.50
2022-11-06T03:05:14.094Z,9.83
2022-11-06T03:07:50.689Z,10.17
2022-11-06T03:10:17.518Z,11.07
2022-11-06T03:12:56.546Z,10.43
2022-11-06T03:15:27.768Z,10.37
2022-11-06T03:18:43.410Z,10.00
2022-11-06T03:21:48.195Z,8.87
2022-11-06T03:24:18.126Z,8.53
2022-11-06T03:26:53.389Z,9.10
2022-11-06T03:29:27.534Z,8.53
2022-11-06T03:31:57.820Z,8.87
2022-11-06T03:34:37.735Z,9.30
2022-11-06T03:37:15.996Z,9.93
2022-11-06T03:39:48.580Z,9.57
2022-11-06T03:42:21.144Z,9.77
2022-11-06T03:44:53.670Z,9.07
2022-11-06T03:47:25.677Z,9.67
2022-11-06T03:50:11.997Z,8.43
2022-11-06T03:52:44.480Z,9.03
2022-11-06T03:55:28.170Z,8.50
2022-11-06T03:57:58.944Z,7.67
2022-11-06T04:00:25.638Z,7.53
2022-11-06T04:03:07.992Z,7.47
2022-11-06T04:05:40.629Z,8.13
2022-11-06T04:08:28.351Z,8.47
2022-11-06T04:11:19.480Z,7.50
2022-11-06T04:14:02.118Z,7.80
2022-11-06T04:16:52.121Z,6.67
2022-11-06T04:19:20.749Z,7.23
2022-11-06T04:22:10.489Z,7.93
2022-11-06T04:25:05.834Z,6.70
2022-11-06T04:28:08.808Z,7.10
2022-11-06T04:30:50.723Z,5.77
2022-11-06T04:33:37.068Z,6.27
2022-11-06T04:36:10.975Z,7.10
2022-11-06T04:38:42.910Z,7.20
2022-11-06T04:41:12.702Z,7.30
2022-11-06T04:43:50.670Z,7.03
2022-11-06T04:46:26.266Z,7.53
2022-11-06T04:48:54.275Z,5.83
2022-11-06T04:51:26.448Z,6.93
2022-11-06T04:53:54.286Z,6.87
2022-11-06T04:56:29.482Z,6.50
2022-11-06T04:58:57.593Z,6.00
2022-11-06T05:01:24.441Z,6.50
2022-11-06T05:03:51.218Z,6.80
2022-11-06T05:06:18.232Z,6.47
2022-11-06T05:08:45.081Z,6.50
2022-11-06T05:11:12.027Z,5.27
2022-11-06T05:13:38.646Z,5.90
2022-11-06T05:16:06.053Z,6.00
2022-11-06T05:18:32.903Z,5.17
2022-11-06T05:21:32.984Z,5.87
2022-11-06T05:23:59.556Z,5.43
2022-11-06T05:26:26.687Z,5.70
2022-11-06T05:28:53.336Z,5.43
2022-11-06T05:31:19.958Z,5.80
2022-11-06T05:33:46.636Z,6.80
2022-11-06T05:36:15.299Z,6.53
2022-11-06T05:38:41.972Z,6.37
2022-11-06T05:41:08.583Z,6.17
2022-11-06T05:43:35.276Z,6.03
2022-11-06T05:46:02.086Z,6.70
2022-11-06T05:48:29.837Z,7.20
2022-11-06T05:51:06.510Z,7.03
2022-11-06T05:53:36.087Z,6.40
2022-11-06T05:56:10.762Z,6.63
2022-11-06T05:58:37.926Z,7.07
2022-11-06T06:01:05.353Z,6.53
2022-11-06T06:03:35.051Z,6.93
2022-11-06T06:06:01.648Z,6.57
2022-11-06T06:08:28.206Z,6.17
2022-11-06T06:10:54.829Z,7.10
2022-11-06T06:13:21.581Z,7.27
2022-11-06T06:15:48.191Z,7.03
2022-11-06T06:18:15.291Z,7.33
2022-11-06T06:20:42.140Z,7.23
2022-11-06T06:23:09.978Z,7.07
2022-11-06T06:25:36.583Z,7.30
2022-11-06T06:28:03.470Z,7.77
2022-11-06T06:30:30.127Z,7.20
2022-11-06T06:32:56.704Z,7.43
2022-11-06T06:35:23.318Z,8.10
2022-11-06T06:37:54.437Z,7.80
2022-11-06T06:40:23.158Z,7.23
2022-11-06T06:42:50.055Z,7.67
2022-11-06T06:45:17.125Z,7.87
2022-11-06T06:47:43.725Z,7.93
2022-11-06T06:50:10.426Z,8.00
2022-11-06T06:52:37.267Z,7.93
2022-11-06T06:55:04.946Z,8.37
2022-11-06T06:57:31.687Z,8.03
2022-11-06T06:59:58.403Z,8.60
2022-11-06T07:02:25.185Z,8.30
2022-11-06T07:04:51.891Z,8.23
2022-11-06T07:07:18.500Z,8.07
2022-11-06T07:09:45.163Z,7.70
2022-11-06T07:12:11.822Z,7.17
2022-11-06T07:14:38.500Z,7.80
2022-11-06T07:17:05.110Z,7.90
2022-11-06T07:19:31.694Z,8.27
2022-11-06T07:21:58.273Z,7.90
2022-11-06T07:24:24.901Z,7.50
2022-11-06T07:26:51.514Z,8.67
2022-11-06T07:29:18.125Z,8.27
2022-11-06T07:31:44.726Z,8.17
2022-11-06T07:34:11.592Z,7.83
2022-11-06T07:36:38.226Z,7.17
2022-11-06T07:39:04.909Z,8.63
2022-11-06T07:41:31.482Z,7.50
2022-11-06T07:43:58.112Z,7.93
2022-11-06T07:46:24.786Z,7.90
2022-11-06T07:48:51.468Z,7.13
2022-11-06T07:51:18.151Z,8.03
2022-11-06T07:53:44.746Z,7.77
2022-11-06T07:56:11.503Z,7.80
2022-11-06T07:58:38.903Z,8.33
2022-11-06T08:01:06.195Z,8.70
2022-11-06T08:03:34.416Z,7.67
2022-11-06T08:06:05.063Z,8.83
2022-11-06T08:08:31.719Z,8.80
2022-11-06T08:11:10.096Z,8.40
2022-11-06T08:13:37.220Z,8.83
2022-11-06T08:16:08.702Z,8.20
2022-11-06T08:18:36.422Z,9.03
2022-11-06T08:21:04.217Z,8.50
2022-11-06T08:23:31.663Z,9.37
2022-11-06T08:26:00.867Z,9.60
2022-11-06T08:28:28.023Z,9.07
2022-11-06T08:30:54.998Z,9.73
2022-11-06T08:33:23.337Z,8.97
2022-11-06T08:35:50.093Z,9.63
2022-11-06T08:38:17.198Z,9.27
2022-11-06T08:40:47.041Z,9.00
2022-11-06T08:43:16.259Z,8.77
2022-11-06T08:45:43.750Z,9.77
2022-11-06T08:48:10.967Z,10.00
2022-11-06T08:50:40.604Z,9.70
2022-11-06T08:53:07.841Z,9.17
2022-11-06T08:55:36.898Z,9.63
2022-11-06T08:58:04.314Z,9.90
2022-11-06T09:00:33.513Z,10.13
2022-11-06T09:03:10.200Z,9.63
2022-11-06T09:05:41.283Z,8.87
2022-11-06T09:08:09.291Z,9.93
2022-11-06T09:10:37.529Z,10.27
2022-11-06T09:13:04.648Z,9.57
2022-11-06T09:15:32.027Z,10.40
2022-11-06T09:17:58.704Z,11.53
2022-11-06T09:20:26.486Z,9.33
2022-11-06T09:22:53.330Z,10.30
2022-11-06T09:25:20.341Z,9.77
2022-11-06T09:27:57.685Z,10.87
2022-11-06T09:30:29.490Z,9.97
2022-11-06T09:32:58.651Z,10.03
2022-11-06T09:35:27.163Z,10.50
2022-11-06T09:37:53.830Z,10.73
2022-11-06T09:40:28.385Z,11.17
2022-11-06T09:44:02.751Z,10.90
2022-11-06T09:46:26.118Z,12.17
2022-11-06T09:49:07.202Z,11.47
2022-11-06T09:51:38.323Z,11.07
2022-11-06T09:54:29.298Z,11.10
2022-11-06T09:57:02.582Z,11.60
2022-11-06T09:59:35.230Z,12.80
2022-11-06T10:02:02.166Z,12.43
2022-11-06T10:04:49.404Z,12.37
2022-11-06T10:07:34.863Z,10.73
2022-11-06T10:10:04.138Z,10.43
2022-11-06T10:12:49.363Z,11.87
2022-11-06T10:15:30.539Z,11.77
2022-11-06T10:18:17.331Z,11.30
2022-11-06T10:20:47.816Z,10.33
2022-11-06T10:23:34.777Z,10.27
2022-11-06T10:26:07.038Z,9.67
2022-11-06T10:28:39.360Z,9.43
2022-11-06T10:31:17.103Z,10.70
2022-11-06T10:33:57.108Z,8.67
2022-11-06T10:36:35.683Z,8.13
2022-11-06T10:39:05.711Z,9.30
2022-11-06T10:41:35.425Z,7.73
2022-11-06T10:44:07.814Z,8.87
2022-11-06T10:46:41.929Z,8.07
2022-11-06T10:49:29.538Z,8.37
2022-11-06T10:52:33.144Z,7.60
2022-11-06T10:55:25.829Z,7.93
2022-11-06T10:58:02.900Z,7.40
2022-11-06T11:00:29.703Z,7.50
2022-11-06T11:03:02.295Z,6.87
2022-11-06T11:05:42.828Z,6.23
2022-11-06T11:08:48.597Z,6.57
2022-11-06T11:11:18.439Z,5.90
2022-11-06T11:13:51.028Z,4.73
2022-11-06T11:16:48.855Z,4.17
2022-11-06T11:19:25.038Z,4.90
2022-11-06T11:22:03.318Z,4.00
2022-11-06T11:24:30.348Z,4.20
2022-11-06T11:27:01.227Z,4.60
2022-11-06T11:29:32.142Z,4.73
2022-11-06T11:32:08.419Z,4.63
2022-11-06T11:34:48.420Z,5.17
2022-11-06T11:37:36.452Z,4.67
2022-11-06T11:40:37.811Z,4.87
2022-11-06T11:43:19.520Z,4.90
2022-11-06T11:46:10.896Z,4.07
2022-11-06T11:48:47.120Z,4.63
2022-11-06T11:51:29.073Z,4.50
2022-11-06T11:54:19.615Z,4.90
2022-11-06T11:57:04.222Z,5.07
2022-11-06T11:59:51.917Z,5.60
2022-11-06T12:02:28.506Z,5.70
2022-11-06T12:05:02.241Z,5.80
2022-11-06T12:07:43.429Z,6.70
2022-11-06T12:10:35.415Z,7.10
2022-11-06T12:13:05.906Z,7.63
2022-11-06T12:15:47.218Z,7.50
2022-11-06T12:18:21.628Z,7.57
2022-11-06T12:20:51.104Z,7.93
2022-11-06T12:23:28.517Z,7.63
2022-11-06T12:26:24.256Z,8.23
2022-11-06T12:29:03.665Z,7.57
2022-11-06T12:31:37.254Z,7.40
2022-11-06T12:34:40.522Z,7.00
2022-11-06T12:37:36.200Z,8.00
2022-11-06T12:40:44.382Z,6.90
2022-11-06T12:43:25.934Z,6.97
2022-11-06T12:46:19.156Z,7.63
2022-11-06T12:48:45.835Z,6.03
2022-11-06T12:51:35.855Z,6.93
2022-11-06T12:54:29.745Z,6.67
2022-11-06T12:57:05.878Z,6.03
2022-11-06T12:59:45.692Z,6.73
2022-11-06T13:02:36.415Z,6.43
2022-11-06T13:05:12.074Z,7.33
2022-11-06T13:07:41.354Z,6.17
2022-11-06T13:10:11.003Z,6.27
2022-11-06T13:12:54.538Z,6.07
2022-11-06T13:15:52.505Z,5.40
2022-11-06T13:18:43.194Z,5.77
2022-11-06T13:21:12.395Z,5.77
2022-11-06T13:23:51.565Z,6.43
2022-11-06T13:29:17.003Z,6.00
2022-11-06T13:31:57.399Z,6.10
2022-11-06T13:34:35.589Z,5.77
2022-11-06T13:37:06.416Z,5.83
2022-11-06T13:39:39.170Z,5.93
2022-11-06T13:42:19.229Z,6.43
2022-11-06T13:44:46.199Z,7.27
2022-11-06T13:47:19.829Z,5.90
2022-11-06T13:50:13.924Z,5.87
2022-11-06T13:52:49.378Z,5.30
2022-11-06T13:55:48.606Z,5.50
2022-11-06T13:58:34.118Z,6.13
2022-11-06T14:01:19.110Z,5.47
2022-11-06T14:04:03.817Z,5.73
2022-11-06T14:06:33.333Z,7.23
2022-11-06T14:09:09.129Z,7.33
2022-11-06T14:11:45.103Z,7.57
2022-11-06T14:14:26.175Z,8.17
2022-11-06T14:17:25.073Z,5.93
2022-11-06T14:19:54.239Z,5.03
2022-11-06T14:22:30.044Z,4.93
2022-11-06T14:25:01.693Z,5.50
2022-11-06T14:27:31.902Z,6.10
2022-11-06T14:30:20.209Z,6.03
2022-11-06T14:32:48.651Z,5.47
2022-11-06T14:35:33.289Z,4.90
2022-11-06T14:38:46.151Z,6.17
2022-11-06T14:41:34.149Z,4.80
2022-11-06T14:44:14.279Z,4.57
2022-11-06T14:46:53.143Z,4.97
2022-11-06T14:49:30.975Z,5.43
2022-11-06T14:52:05.032Z,6.43
2022-11-06T14:54:35.537Z,5.77
2022-11-06T14:57:02.794Z,6.50
2022-11-06T14:59:35.119Z,5.83
2022-11-06T15:02:15.346Z,5.40
2022-11-06T15:04:46.711Z,5.47
2022-11-06T15:08:02.575Z,5.33
2022-11-06T15:10:44.195Z,5.57
2022-11-06T15:13:17.247Z,5.83
2022-11-06T15:15:52.388Z,4.47
2022-11-06T15:18:25.307Z,4.80
2022-11-06T15:20:56.823Z,5.23
2022-11-06T15:23:57.103Z,5.10
2022-11-06T15:26:38.787Z,4.83
2022-11-06T15:29:28.449Z,8.07
2022-11-06T15:32:03.138Z,7.00
2022-11-06T15:34:46.355Z,5.70
2022-11-06T15:37:16.509Z,3.80
2022-11-06T15:39:59.377Z,3.63
2022-11-06T15:42:34.052Z,3.70
2022-11-06T15:45:27.848Z,3.93
2022-11-06T15:48:05.196Z,3.37
2022-11-06T15:50:34.264Z,3.97
2022-11-06T15:53:16.309Z,5.00
2022-11-06T15:55:52.584Z,3.43
2022-11-06T15:58:19.099Z,3.73
2022-11-06T16:00:46.414Z,3.40
2022-11-06T16:03:16.927Z,4.37
2022-11-06T16:05:44.638Z,4.40
2022-11-06T16:08:14.892Z,4.50
2022-11-06T16:10:44.030Z,5.43
2022-11-06T16:13:16.958Z,5.17
2022-11-06T16:15:49.547Z,5.30
2022-11-06T16:18:32.565Z,8.70
2022-11-06T16:21:11.733Z,6.50
2022-11-06T16:23:40.030Z,6.07
2022-11-06T16:26:13.191Z,5.23
2022-11-06T16:28:49.120Z,7.20
2022-11-06T16:31:25.518Z,6.63
2022-11-06T16:34:00.650Z,6.17
2022-11-06T16:36:29.599Z,7.73
2022-11-06T16:39:17.736Z,5.73
2022-11-06T16:41:59.590Z,8.10
2022-11-06T16:44:41.411Z,9.50
2022-11-06T16:47:10.837Z,12.17
2022-11-06T16:49:53.649Z,9.73
2022-11-06T16:52:29.692Z,9.43
2022-11-06T16:55:04.177Z,9.67
2022-11-06T16:57:42.570Z,8.83
2022-11-06T17:00:21.127Z,8.10
2022-11-06T17:02:52.665Z,8.67
2022-11-06T17:05:22.377Z,9.77
2022-11-06T17:08:04.617Z,9.77
2022-11-06T17:11:12.670Z,8.43
2022-11-06T17:13:42.948Z,8.23
2022-11-06T17:16:18.783Z,8.73
2022-11-06T17:18:45.882Z,9.67
2022-11-06T17:21:15.222Z,10.53
2022-11-06T17:23:42.716Z,10.57
2022-11-06T17:26:30.881Z,10.10
2022-11-06T17:28:59.408Z,10.93
2022-11-06T17:31:26.956Z,8.67
2022-11-06T17:33:53.809Z,8.13
2022-11-06T17:36:25.319Z,9.13
2022-11-06T17:38:52.782Z,8.20
2022-11-06T17:41:32.593Z,7.87
2022-11-06T17:44:08.102Z,7.70
2022-11-06T17:46:37.736Z,7.90
2022-11-06T17:49:05.158Z,7.73
2022-11-06T17:51:50.179Z,6.80
2022-11-06T17:54:18.873Z,7.13
2022-11-06T17:56:51.686Z,7.40
2022-11-06T17:59:18.470Z,7.67
2022-11-06T18:01:47.787Z,8.17
2022-11-06T18:04:14.654Z,8.00
2022-11-06T18:06:45.739Z,8.20
2022-11-06T18:09:13.705Z,8.50
2022-11-06T18:11:41.535Z,7.37
2022-11-06T18:14:09.541Z,8.50
2022-11-06T18:16:43.384Z,8.23
2022-11-06T18:19:14.308Z,10.27
2022-11-06T18:21:41.170Z,8.50
2022-11-06T18:24:08.354Z,8.50
2022-11-06T18:26:37.274Z,9.00
2022-11-06T18:29:05.715Z,8.97
2022-11-06T18:31:32.503Z,9.07
2022-11-06T18:33:59.241Z,10.17
2022-11-06T18:36:26.595Z,10.63
2022-11-06T18:38:53.228Z,10.10
2022-11-06T18:41:21.784Z,10.20
2022-11-06T18:43:48.917Z,9.53
2022-11-06T18:46:18.071Z,9.30
2022-11-06T18:48:45.366Z,9.17
2022-11-06T18:51:27.493Z,8.93
2022-11-06T18:54:02.508Z,9.03
2022-11-06T18:56:29.904Z,9.73
2022-11-06T18:58:56.633Z,9.73
2022-11-06T19:01:23.499Z,9.40
2022-11-06T19:03:50.454Z,9.63
2022-11-06T19:06:19.966Z,10.00
2022-11-06T19:08:47.735Z,10.07
2022-11-06T19:11:15.865Z,10.03
2022-11-06T19:13:47.595Z,10.50
2022-11-06T19:16:15.139Z,10.83
2022-11-06T19:18:42.248Z,11.27
2022-11-06T19:21:11.593Z,11.40
2022-11-06T19:23:41.880Z,11.37
2022-11-06T19:26:30.059Z,15.53
2022-11-06T19:28:58.369Z,81.40
2022-11-06T19:31:29.227Z,49.17
2022-11-06T19:34:00.291Z,23.03
2022-11-06T19:36:27.889Z,26.90
2022-11-06T19:38:54.723Z,17.37
2022-11-06T19:41:21.285Z,16.70
2022-11-06T19:43:48.347Z,14.47
2022-11-06T19:46:23.870Z,13.70
2022-11-06T19:48:52.557Z,13.27
2022-11-06T19:51:19.179Z,13.53
2022-11-06T19:53:45.841Z,15.67
2022-11-06T19:56:16.595Z,14.53
2022-11-06T19:58:43.630Z,15.03
2022-11-06T20:01:13.154Z,15.23
2022-11-06T20:03:40.081Z,14.53
2022-11-06T20:06:08.368Z,14.33
2022-11-06T20:08:36.850Z,13.20
2022-11-06T20:11:12.572Z,11.80
2022-11-06T20:13:40.629Z,12.57
2022-11-06T20:16:10.644Z,13.07
2022-11-06T20:18:37.858Z,12.60
2022-11-06T20:21:07.269Z,13.20
2022-11-06T20:23:34.846Z,12.90
2022-11-06T20:26:01.462Z,12.23
2022-11-06T20:28:28.225Z,14.13
2022-11-06T20:30:55.814Z,13.73
2022-11-06T20:33:22.844Z,15.77
2022-11-06T20:35:49.603Z,13.70
2022-11-06T20:38:16.307Z,15.83
2022-11-06T20:40:43.011Z,19.10
2022-11-06T20:43:10.072Z,17.17
2022-11-06T20:45:37.586Z,15.97
2022-11-06T20:48:05.447Z,16.47
2022-11-06T20:50:32.664Z,16.33
2022-11-06T20:52:59.568Z,15.10
2022-11-06T20:55:26.217Z,13.93
2022-11-06T20:57:52.821Z,15.43
2022-11-06T21:00:19.540Z,15.30
2022-11-06T21:02:46.763Z,14.37
2022-11-06T21:05:15.064Z,14.43
2022-11-06T21:07:42.152Z,14.50
2022-11-06T21:10:11.034Z,13.70
2022-11-06T21:12:37.996Z,12.87
2022-11-06T21:15:05.136Z,14.50
2022-11-06T21:17:31.853Z,14.80
2022-11-06T21:19:58.702Z,15.17
2022-11-06T21:22:25.340Z,13.13
2022-11-06T21:24:51.921Z,13.67
2022-11-06T21:27:18.585Z,14.33
2022-11-06T21:29:45.229Z,14.57
2022-11-06T21:32:11.943Z,14.33
2022-11-06T21:34:38.601Z,17.10
2022-11-06T21:37:05.189Z,15.87
2022-11-06T21:39:36.241Z,16.80
2022-11-06T21:42:05.010Z,15.90
2022-11-06T21:44:31.995Z,15.47
2022-11-06T21:46:58.606Z,15.37
2022-11-06T21:49:25.220Z,14.63
2022-11-06T21:51:51.813Z,14.10
2022-11-06T21:54:37.161Z,14.10
2022-11-06T21:57:03.996Z,13.60
2022-11-06T21:59:30.717Z,12.90
2022-11-06T22:01:57.627Z,13.47
2022-11-06T22:04:24.537Z,13.30
2022-11-06T22:06:52.488Z,14.67
2022-11-06T22:09:24.462Z,15.63
2022-11-06T22:11:51.743Z,15.90
2022-11-06T22:14:18.336Z,14.60
2022-11-06T22:16:47.026Z,14.83
2022-11-06T22:19:15.336Z,15.07
2022-11-06T22:21:42.302Z,14.97
2022-11-06T22:24:11.804Z,14.80
2022-11-06T22:26:38.444Z,14.30
2022-11-06T22:29:12.034Z,14.43
2022-11-06T22:31:39.113Z,14.40
2022-11-06T22:34:06.138Z,16.33
2022-11-06T22:36:32.850Z,14.83
2022-11-06T22:39:03.394Z,14.80
2022-11-06T22:41:30.008Z,14.00
2022-11-06T22:44:00.567Z,12.67
2022-11-06T22:46:28.096Z,14.70
2022-11-06T22:48:54.960Z,13.40
2022-11-06T22:51:27.846Z,14.53
2022-11-06T22:53:55.270Z,15.87
2022-11-06T22:56:23.437Z,14.37
2022-11-06T22:58:58.130Z,14.33
2022-11-06T23:01:27.362Z,14.27
2022-11-06T23:03:57.899Z,13.97
2022-11-06T23:06:25.704Z,13.63
2022-11-06T23:08:53.119Z,13.60
2022-11-06T23:11:21.289Z,13.93
2022-11-06T23:13:47.990Z,13.67
2022-11-06T23:16:39.069Z,14.30
2022-11-06T23:19:06.014Z,15.70
2022-11-06T23:21:32.682Z,13.67
2022-11-06T23:23:59.235Z,15.23
2022-11-06T23:26:25.936Z,13.30
2022-11-06T23:28:55.358Z,14.00
2022-11-06T23:31:22.350Z,14.87
2022-11-06T23:33:49.029Z,13.57
2022-11-06T23:36:16.977Z,13.23
2022-11-06T23:38:43.989Z,12.77
2022-11-06T23:41:33.962Z,13.17
2022-11-06T23:44:01.736Z,13.60
2022-11-06T23:46:30.636Z,13.80
2022-11-06T23:48:58.067Z,14.00
2022-11-06T23:51:27.098Z,15.37
2022-11-06T23:53:54.403Z,13.67
2022-11-06T23:56:21.046Z,13.37
2022-11-06T23:58:47.663Z,14.27
